createdAt,value
2023-03-05T00:00:22.098Z,4.93
2023-03-05T00:02:55.246Z,4.97
2023-03-05T00:05:25.793Z,5.01
2023-03-05T00:07:56.608Z,5.03
2023-03-05T00:10:27.202Z,5.04
2023-03-05T00:12:57.808Z,5.07
2023-03-05T00:15:28.398Z,5.07
2023-03-05T00:18:01.522Z,5.09
2023-03-05T00:20:32.150Z,5.11
2023-03-05T00:23:02.841Z,5.10
2023-03-05T00:25:33.426Z,5.11
2023-03-05T00:28:03.966Z,5.10
2023-03-05T00:30:35.342Z,5.08
2023-03-05T00:33:08.809Z,5.06
2023-03-05T00:35:43.393Z,4.90
2023-03-05T00:38:14.738Z,4.84
2023-03-05T00:40:45.342Z,4.63
2023-03-05T00:43:16.217Z,4.36
2023-03-05T00:45:46.724Z,4.16
2023-03-05T00:48:19.950Z,4.17
2023-03-05T00:50:50.474Z,4.15
2023-03-05T00:53:21.217Z,4.19
2023-03-05T00:55:51.917Z,3.98
2023-03-05T00:58:23.910Z,3.58
2023-03-05T01:00:54.429Z,3.15
2023-03-05T01:03:27.641Z,2.73
2023-03-05T01:05:59.576Z,2.41
2023-03-05T01:08:30.843Z,2.17
2023-03-05T01:11:01.463Z,2.05
2023-03-05T01:13:32.276Z,1.99
2023-03-05T01:16:03.597Z,1.92
2023-03-05T01:18:37.651Z,1.88
2023-03-05T01:21:09.051Z,1.89
2023-03-05T01:23:40.350Z,1.93
2023-03-05T01:26:11.018Z,2.03
2023-03-05T01:28:41.570Z,2.17
2023-03-05T01:31:12.876Z,2.30
2023-03-05T01:33:46.140Z,2.41
2023-03-05T01:36:18.588Z,2.48
2023-03-05T01:38:50.704Z,2.46
2023-03-05T01:41:22.240Z,2.35
2023-03-05T01:43:53.569Z,2.20
2023-03-05T01:46:36.741Z,2.08
2023-03-05T01:49:19.329Z,2.11
2023-03-05T01:51:58.017Z,2.34
2023-03-05T01:54:32.164Z,2.51
2023-03-05T01:57:07.962Z,2.70
2023-03-05T01:59:41.084Z,2.85
2023-03-05T02:02:12.283Z,2.97
2023-03-05T02:04:49.324Z,3.17
2023-03-05T02:07:20.652Z,3.33
2023-03-05T02:09:51.928Z,3.46
2023-03-05T02:12:22.642Z,3.61
2023-03-05T02:15:15.004Z,3.75
2023-03-05T02:17:45.505Z,3.87
2023-03-05T02:20:20.849Z,3.99
2023-03-05T02:22:54.171Z,4.08
2023-03-05T02:25:27.728Z,4.17
2023-03-05T02:28:03.122Z,4.26
2023-03-05T02:30:33.816Z,4.34
2023-03-05T02:33:04.502Z,4.42
2023-03-05T02:35:36.041Z,4.49
2023-03-05T02:38:09.983Z,4.55
2023-03-05T02:40:41.586Z,4.60
2023-03-05T02:43:12.986Z,4.65
2023-03-05T02:45:44.484Z,4.69
2023-03-05T02:48:15.049Z,4.73
2023-03-05T02:50:46.724Z,4.75
2023-03-05T02:53:19.810Z,4.77
2023-03-05T02:55:50.925Z,4.78
2023-03-05T02:58:21.739Z,4.80
2023-03-05T03:00:52.392Z,4.81
2023-03-05T03:03:23.009Z,4.82
2023-03-05T03:05:53.883Z,4.83
2023-03-05T03:08:27.142Z,4.84
2023-03-05T03:10:58.113Z,4.69
2023-03-05T03:13:28.743Z,4.69
2023-03-05T03:16:05.780Z,4.53
2023-03-05T03:18:36.871Z,4.51
2023-03-05T03:21:09.356Z,4.41
2023-03-05T03:23:42.441Z,4.39
2023-03-05T03:26:12.957Z,4.34
2023-03-05T03:28:43.895Z,4.34
2023-03-05T03:31:14.780Z,4.29
2023-03-05T03:33:45.534Z,4.32
2023-03-05T03:36:16.312Z,4.34
2023-03-05T03:38:49.507Z,4.36
2023-03-05T03:41:20.113Z,4.32
2023-03-05T03:43:50.724Z,4.23
2023-03-05T03:46:21.454Z,4.07
2023-03-05T03:48:53.606Z,3.86
2023-03-05T03:51:24.155Z,3.89
2023-03-05T03:53:58.059Z,3.88
2023-03-05T03:56:28.661Z,3.93
2023-03-05T03:59:00.220Z,3.91
2023-03-05T04:01:30.823Z,3.87
2023-03-05T04:04:01.363Z,3.90
2023-03-05T04:06:31.977Z,3.94
2023-03-05T04:09:05.126Z,3.91
2023-03-05T04:11:35.679Z,3.81
2023-03-05T04:14:06.533Z,3.74
2023-03-05T04:16:37.176Z,3.79
2023-03-05T04:19:07.740Z,3.84
2023-03-05T04:21:38.332Z,3.89
2023-03-05T04:24:12.233Z,3.88
2023-03-05T04:26:42.766Z,3.79
2023-03-05T04:29:13.234Z,3.64
2023-03-05T04:31:43.742Z,3.62
2023-03-05T04:34:14.378Z,3.65
2023-03-05T04:36:45.005Z,3.74
2023-03-05T04:39:21.153Z,3.85
2023-03-05T04:41:51.690Z,3.85
2023-03-05T04:44:23.500Z,3.93
2023-03-05T04:46:54.123Z,3.97
2023-03-05T04:49:24.676Z,3.93
2023-03-05T04:51:55.224Z,3.83
2023-03-05T04:54:28.386Z,3.63
2023-03-05T04:56:58.927Z,3.61
2023-03-05T04:59:29.491Z,3.62
2023-03-05T05:02:00.184Z,3.59
2023-03-05T05:04:30.756Z,3.66
2023-03-05T05:07:02.568Z,3.74
2023-03-05T05:09:35.827Z,3.85
2023-03-05T05:12:06.594Z,3.92
2023-03-05T05:14:37.537Z,3.92
2023-03-05T05:17:08.214Z,3.83
2023-03-05T05:19:39.121Z,3.64
2023-03-05T05:22:09.784Z,3.69
2023-03-05T05:24:43.050Z,3.71
2023-03-05T05:27:13.741Z,3.84
2023-03-05T05:29:46.589Z,3.90
2023-03-05T05:32:17.260Z,3.89
2023-03-05T05:34:47.796Z,3.79
2023-03-05T05:37:18.308Z,3.67
2023-03-05T05:39:51.590Z,3.75
2023-03-05T05:42:23.046Z,3.78
2023-03-05T05:44:55.617Z,3.89
2023-03-05T05:47:26.373Z,3.93
2023-03-05T05:49:56.877Z,3.88
2023-03-05T05:52:27.620Z,3.76
2023-03-05T05:55:00.767Z,3.70
2023-03-05T05:57:31.366Z,3.76
2023-03-05T06:00:01.829Z,3.87
2023-03-05T06:02:42.401Z,3.98
2023-03-05T06:05:16.570Z,4.03
2023-03-05T06:07:47.064Z,3.97
2023-03-05T06:10:22.673Z,3.89
2023-03-05T06:12:52.801Z,4.00
2023-03-05T06:15:23.296Z,4.10
2023-03-05T06:17:54.872Z,4.25
2023-03-05T06:20:25.422Z,4.32
2023-03-05T06:22:56.020Z,4.35
2023-03-05T06:25:29.201Z,4.26
2023-03-05T06:27:59.964Z,4.36
2023-03-05T06:30:30.494Z,4.42
2023-03-05T06:33:01.154Z,4.41
2023-03-05T06:35:31.718Z,4.32
2023-03-05T06:38:02.254Z,4.39
2023-03-05T06:40:35.423Z,4.44
2023-03-05T06:43:05.966Z,4.60
2023-03-05T06:45:36.534Z,4.74
2023-03-05T06:48:07.626Z,4.78
2023-03-05T06:50:38.581Z,4.74
2023-03-05T06:53:09.182Z,4.86
2023-03-05T06:55:42.642Z,4.90
2023-03-05T06:58:13.256Z,4.82
2023-03-05T07:00:43.736Z,4.86
2023-03-05T07:03:14.345Z,4.96
2023-03-05T07:05:45.598Z,5.07
2023-03-05T07:08:16.045Z,5.19
2023-03-05T07:10:49.157Z,5.22
2023-03-05T07:13:19.614Z,5.20
2023-03-05T07:15:50.112Z,5.09
2023-03-05T07:18:20.717Z,5.10
2023-03-05T07:20:51.394Z,5.16
2023-03-05T07:23:21.777Z,5.32
2023-03-05T07:25:54.833Z,5.45
2023-03-05T07:28:25.417Z,5.47
2023-03-05T07:31:00.588Z,5.52
2023-03-05T07:33:32.245Z,5.65
2023-03-05T07:36:04.632Z,5.62
2023-03-05T07:38:35.362Z,5.60
2023-03-05T07:41:11.059Z,5.72
2023-03-05T07:43:41.747Z,5.76
2023-03-05T07:46:15.698Z,5.71
2023-03-05T07:48:46.839Z,5.56
2023-03-05T07:51:19.321Z,5.70
2023-03-05T07:53:51.594Z,5.85
2023-03-05T07:56:30.093Z,6.09
2023-03-05T07:59:00.661Z,6.24
2023-03-05T08:01:31.494Z,6.35
2023-03-05T08:04:02.269Z,6.53
2023-03-05T08:06:33.391Z,6.63
2023-03-05T08:09:04.125Z,6.56
2023-03-05T08:11:37.305Z,6.51
2023-03-05T08:14:07.834Z,6.65
2023-03-05T08:16:38.861Z,6.82
2023-03-05T08:19:09.700Z,6.99
2023-03-05T08:21:40.650Z,7.03
2023-03-05T08:24:11.981Z,6.95
2023-03-05T08:26:45.629Z,7.10
2023-03-05T08:29:16.138Z,7.23
2023-03-05T08:31:49.062Z,7.39
2023-03-05T08:34:19.553Z,7.48
2023-03-05T08:36:50.699Z,7.41
2023-03-05T08:39:21.985Z,7.37
2023-03-05T08:41:55.338Z,7.49
2023-03-05T08:44:25.759Z,7.66
2023-03-05T08:46:56.485Z,7.95
2023-03-05T08:49:27.512Z,8.13
2023-03-05T08:51:58.058Z,8.40
2023-03-05T08:54:28.562Z,8.48
2023-03-05T08:57:01.827Z,8.63
2023-03-05T08:59:32.616Z,8.64
2023-03-05T09:02:04.254Z,8.62
2023-03-05T09:04:34.845Z,8.72
2023-03-05T09:07:05.405Z,8.61
2023-03-05T09:09:36.238Z,8.61
2023-03-05T09:12:12.123Z,8.65
2023-03-05T09:14:43.056Z,8.55
2023-03-05T09:17:13.578Z,8.65
2023-03-05T09:19:44.247Z,8.71
2023-03-05T09:22:15.513Z,8.92
2023-03-05T09:24:46.034Z,9.05
2023-03-05T09:27:19.223Z,9.19
2023-03-05T09:29:49.830Z,9.31
2023-03-05T09:32:20.430Z,9.35
2023-03-05T09:34:51.003Z,9.45
2023-03-05T09:37:22.339Z,9.44
2023-03-05T09:39:54.238Z,9.58
2023-03-05T09:43:01.453Z,9.64
2023-03-05T09:45:38.631Z,9.75
2023-03-05T09:48:16.634Z,9.79
2023-03-05T09:50:51.374Z,9.94
2023-03-05T09:53:33.350Z,9.98
2023-03-05T09:56:09.074Z,10.02
2023-03-05T09:58:44.334Z,10.05
2023-03-05T10:01:18.695Z,10.15
2023-03-05T10:03:59.985Z,10.18
2023-03-05T10:06:34.653Z,10.18
2023-03-05T10:09:10.202Z,10.17
2023-03-05T10:11:45.867Z,10.04
2023-03-05T10:14:26.861Z,10.13
2023-03-05T10:17:06.373Z,10.14
2023-03-05T10:20:11.776Z,10.23
2023-03-05T10:22:54.843Z,10.28
2023-03-05T10:25:29.716Z,10.31
2023-03-05T10:28:07.556Z,10.17
2023-03-05T10:31:00.074Z,10.13
2023-03-05T10:33:38.435Z,9.95
2023-03-05T10:36:33.288Z,9.89
2023-03-05T10:39:42.555Z,9.79
2023-03-05T10:42:25.301Z,9.87
2023-03-05T10:44:57.882Z,9.81
2023-03-05T10:47:38.915Z,9.87
2023-03-05T10:50:19.553Z,9.81
2023-03-05T10:52:55.720Z,9.64
2023-03-05T10:55:26.620Z,9.59
2023-03-05T10:57:57.231Z,9.54
2023-03-05T11:00:29.812Z,9.66
2023-03-05T11:03:05.053Z,9.81
2023-03-05T11:05:44.211Z,10.04
2023-03-05T11:08:27.963Z,10.19
2023-03-05T11:11:14.545Z,10.32
2023-03-05T11:13:54.916Z,10.34
2023-03-05T11:16:28.236Z,10.25
2023-03-05T11:19:30.161Z,10.24
2023-03-05T11:22:17.706Z,10.05
2023-03-05T11:25:05.711Z,9.96
2023-03-05T11:27:41.958Z,9.88
2023-03-05T11:30:23.185Z,9.72
2023-03-05T11:32:53.707Z,9.77
2023-03-05T11:35:37.619Z,9.67
2023-03-05T11:38:18.228Z,9.81
2023-03-05T11:40:49.987Z,9.78
2023-03-05T11:43:22.596Z,9.81
2023-03-05T11:45:56.795Z,9.73
2023-03-05T11:48:31.650Z,9.53
2023-03-05T11:51:10.864Z,9.29
2023-03-05T11:53:42.423Z,9.32
2023-03-05T11:56:21.946Z,9.36
2023-03-05T11:58:57.874Z,9.44
2023-03-05T12:01:31.338Z,9.47
2023-03-05T12:04:03.156Z,9.53
2023-03-05T12:06:41.123Z,9.44
2023-03-05T12:09:16.904Z,9.29
2023-03-05T12:11:48.179Z,9.32
2023-03-05T12:14:25.386Z,9.25
2023-03-05T12:17:01.650Z,9.11
2023-03-05T12:19:50.787Z,9.22
2023-03-05T12:22:26.359Z,9.29
2023-03-05T12:24:57.000Z,9.43
2023-03-05T12:27:40.387Z,9.47
2023-03-05T12:30:47.429Z,9.20
2023-03-05T12:33:34.764Z,8.90
2023-03-05T12:36:35.183Z,8.69
2023-03-05T12:39:52.968Z,8.55
2023-03-05T12:42:49.090Z,8.50
2023-03-05T12:45:37.658Z,8.48
2023-03-05T12:48:45.550Z,8.48
2023-03-05T12:51:31.995Z,8.45
2023-03-05T12:54:27.847Z,8.41
2023-03-05T12:57:00.042Z,8.41
2023-03-05T12:59:41.221Z,8.42
2023-03-05T13:02:24.606Z,8.38
2023-03-05T13:05:00.454Z,8.25
2023-03-05T13:07:34.254Z,8.45
2023-03-05T13:10:07.800Z,8.60
2023-03-05T13:12:39.732Z,8.54
2023-03-05T13:15:17.620Z,8.38
2023-03-05T13:17:57.494Z,8.57
2023-03-05T13:20:37.972Z,8.65
2023-03-05T13:23:21.284Z,8.56
2023-03-05T13:26:15.656Z,8.42
2023-03-05T13:28:47.358Z,8.29
2023-03-05T13:31:21.459Z,8.24
2023-03-05T13:33:57.250Z,8.15
2023-03-05T13:36:29.585Z,8.01
2023-03-05T13:39:00.810Z,7.87
2023-03-05T13:41:33.995Z,7.64
2023-03-05T13:44:06.216Z,7.42
2023-03-05T13:46:38.826Z,7.39
2023-03-05T13:49:24.645Z,7.29
2023-03-05T13:51:57.611Z,7.34
2023-03-05T13:54:31.044Z,7.58
2023-03-05T13:57:06.671Z,7.74
2023-03-05T13:59:39.432Z,7.91
2023-03-05T14:02:20.962Z,8.14
2023-03-05T14:04:53.407Z,8.31
2023-03-05T14:07:33.138Z,8.41
2023-03-05T14:10:05.819Z,8.33
2023-03-05T14:12:42.972Z,8.42
2023-03-05T14:15:25.084Z,8.47
2023-03-05T14:17:56.586Z,8.57
2023-03-05T14:20:30.451Z,8.58
2023-03-05T14:23:03.261Z,8.38
2023-03-05T14:25:38.317Z,8.18
2023-03-05T14:28:24.367Z,8.25
2023-03-05T14:30:57.668Z,8.26
2023-03-05T14:33:31.683Z,8.13
2023-03-05T14:36:04.274Z,8.14
2023-03-05T14:38:36.597Z,8.22
2023-03-05T14:41:23.509Z,8.34
2023-03-05T14:43:56.603Z,8.37
2023-03-05T14:46:27.481Z,8.22
2023-03-05T14:48:58.341Z,7.97
2023-03-05T14:51:29.538Z,7.88
2023-03-05T14:54:00.209Z,7.96
2023-03-05T14:56:32.014Z,8.03
2023-03-05T14:59:05.275Z,8.12
2023-03-05T15:01:35.980Z,8.06
2023-03-05T15:04:06.563Z,7.86
2023-03-05T15:06:40.197Z,7.87
2023-03-05T15:09:11.207Z,7.91
2023-03-05T15:11:41.638Z,7.76
2023-03-05T15:14:15.393Z,7.63
2023-03-05T15:16:49.077Z,7.72
2023-03-05T15:19:20.639Z,7.70
2023-03-05T15:21:52.033Z,7.54
2023-03-05T15:24:22.581Z,7.57
2023-03-05T15:26:53.100Z,7.63
2023-03-05T15:29:26.198Z,7.65
2023-03-05T15:31:56.832Z,7.71
2023-03-05T15:34:27.482Z,7.62
2023-03-05T15:36:58.597Z,7.39
2023-03-05T15:39:29.239Z,7.27
2023-03-05T15:42:00.278Z,7.32
2023-03-05T15:44:33.430Z,7.25
2023-03-05T15:47:04.003Z,7.19
2023-03-05T15:49:34.565Z,7.27
2023-03-05T15:52:05.085Z,7.22
2023-03-05T15:54:35.707Z,6.99
2023-03-05T15:57:06.580Z,6.94
2023-03-05T15:59:40.002Z,7.00
2023-03-05T16:02:10.920Z,6.98
2023-03-05T16:04:41.487Z,7.10
2023-03-05T16:07:12.963Z,6.72
2023-03-05T16:09:48.277Z,6.01
2023-03-05T16:12:23.272Z,5.30
2023-03-05T16:14:56.541Z,4.66
2023-03-05T16:17:27.763Z,4.13
2023-03-05T16:19:59.368Z,3.74
2023-03-05T16:22:30.865Z,3.46
2023-03-05T16:25:01.620Z,3.29
2023-03-05T16:27:33.960Z,3.13
2023-03-05T16:30:07.987Z,3.03
2023-03-05T16:32:40.211Z,3.04
2023-03-05T16:35:12.518Z,3.13
2023-03-05T16:37:43.568Z,3.29
2023-03-05T16:40:15.860Z,3.48
2023-03-05T16:42:46.812Z,3.77
2023-03-05T16:45:20.245Z,4.01
2023-03-05T16:47:52.630Z,4.25
2023-03-05T16:50:23.726Z,4.44
2023-03-05T16:52:54.506Z,4.65
2023-03-05T16:55:25.187Z,4.83
2023-03-05T16:57:56.105Z,5.01
2023-03-05T17:00:29.717Z,5.16
2023-03-05T17:03:00.242Z,5.33
2023-03-05T17:05:30.919Z,5.45
2023-03-05T17:08:02.418Z,5.57
2023-03-05T17:10:33.350Z,5.67
2023-03-05T17:13:04.007Z,5.71
2023-03-05T17:15:37.387Z,5.82
2023-03-05T17:18:08.782Z,5.89
2023-03-05T17:20:39.748Z,5.94
2023-03-05T17:23:11.329Z,5.93
2023-03-05T17:25:42.279Z,6.00
2023-03-05T17:28:13.590Z,6.03
2023-03-05T17:30:47.367Z,6.05
2023-03-05T17:33:18.109Z,6.06
2023-03-05T17:35:50.254Z,6.05
2023-03-05T17:38:21.203Z,6.03
2023-03-05T17:40:52.482Z,5.89
2023-03-05T17:43:23.236Z,5.85
2023-03-05T17:45:59.989Z,5.69
2023-03-05T17:48:31.615Z,5.47
2023-03-05T17:51:02.293Z,5.51
2023-03-05T17:53:32.973Z,5.46
2023-03-05T17:56:03.659Z,5.23
2023-03-05T17:58:34.622Z,5.17
2023-03-05T18:01:09.145Z,5.17
2023-03-05T18:03:40.222Z,5.04
2023-03-05T18:06:11.047Z,4.81
2023-03-05T18:08:41.774Z,4.75
2023-03-05T18:11:12.492Z,4.81
2023-03-05T18:13:43.521Z,4.91
2023-03-05T18:16:18.498Z,5.00
2023-03-05T18:18:49.140Z,4.96
2023-03-05T18:21:22.999Z,4.78
2023-03-05T18:23:54.419Z,4.72
2023-03-05T18:26:25.456Z,4.76
2023-03-05T18:28:56.490Z,4.67
2023-03-05T18:31:29.858Z,4.74
2023-03-05T18:34:00.587Z,4.72
2023-03-05T18:36:31.333Z,4.60
2023-03-05T18:39:02.023Z,4.36
2023-03-05T18:41:33.890Z,4.24
2023-03-05T18:44:05.127Z,4.29
2023-03-05T18:46:38.613Z,4.39
2023-03-05T18:49:09.698Z,4.51
2023-03-05T18:51:40.506Z,4.93
2023-03-05T18:54:11.412Z,5.67
2023-03-05T18:56:42.478Z,6.44
2023-03-05T18:59:13.143Z,7.11
2023-03-05T19:01:46.634Z,7.54
2023-03-05T19:04:17.271Z,7.91
2023-03-05T19:06:48.349Z,8.14
2023-03-05T19:09:46.160Z,8.34
2023-03-05T19:12:19.739Z,8.48
2023-03-05T19:14:50.348Z,8.55
2023-03-05T19:17:23.630Z,8.51
2023-03-05T19:19:54.847Z,8.45
2023-03-05T19:22:27.079Z,8.38
2023-03-05T19:24:57.738Z,8.32
2023-03-05T19:27:29.318Z,8.28
2023-03-05T19:30:00.397Z,8.23
2023-03-05T19:32:33.683Z,8.23
2023-03-05T19:35:04.856Z,8.23
2023-03-05T19:37:35.411Z,8.30
2023-03-05T19:40:06.330Z,8.36
2023-03-05T19:42:38.292Z,8.26
2023-03-05T19:45:10.333Z,7.33
2023-03-05T19:47:43.529Z,5.89
2023-03-05T19:50:17.849Z,4.65
2023-03-05T19:52:48.501Z,3.58
2023-03-05T19:55:19.222Z,3.18
2023-03-05T19:57:49.895Z,3.11
2023-03-05T20:00:22.133Z,3.25
2023-03-05T20:02:55.309Z,3.45
2023-03-05T20:05:26.792Z,3.67
2023-03-05T20:07:57.529Z,3.85
2023-03-05T20:10:28.105Z,3.83
2023-03-05T20:12:58.949Z,3.81
2023-03-05T20:15:29.958Z,3.88
2023-03-05T20:18:03.185Z,3.78
2023-03-05T20:20:33.935Z,3.73
2023-03-05T20:23:04.604Z,3.80
2023-03-05T20:25:35.308Z,3.75
2023-03-05T20:28:05.832Z,3.78
2023-03-05T20:30:36.440Z,3.84
2023-03-05T20:33:09.702Z,3.78
2023-03-05T20:35:40.504Z,3.56
2023-03-05T20:38:30.429Z,3.31
2023-03-05T20:41:02.649Z,3.07
2023-03-05T20:43:35.262Z,2.96
2023-03-05T20:46:06.874Z,3.07
2023-03-05T20:48:40.260Z,3.18
2023-03-05T20:51:15.669Z,3.27
2023-03-05T20:53:46.480Z,3.17
2023-03-05T20:56:17.090Z,2.96
2023-03-05T20:58:47.936Z,3.05
2023-03-05T21:01:18.780Z,3.03
2023-03-05T21:03:53.940Z,2.96
2023-03-05T21:06:24.525Z,2.79
2023-03-05T21:08:55.341Z,2.54
2023-03-05T21:11:26.562Z,2.56
2023-03-05T21:13:57.274Z,2.66
2023-03-05T21:16:30.033Z,2.61
2023-03-05T21:19:03.741Z,2.44
2023-03-05T21:21:34.419Z,2.28
2023-03-05T21:24:05.266Z,2.24
2023-03-05T21:26:36.313Z,2.38
2023-03-05T21:29:06.938Z,2.36
2023-03-05T21:31:37.742Z,1.98
2023-03-05T21:34:11.153Z,1.48
2023-03-05T21:36:41.668Z,1.46
2023-03-05T21:39:12.337Z,1.53
2023-03-05T21:41:46.401Z,1.41
2023-03-05T21:44:17.931Z,0.92
2023-03-05T21:46:48.406Z,0.42
2023-03-05T21:49:21.607Z,0.01
2023-03-05T21:52:09.403Z,-0.25
2023-03-05T21:54:40.556Z,-0.44
2023-03-05T21:57:13.074Z,-0.53
2023-03-05T21:59:44.434Z,-0.64
2023-03-05T22:02:15.407Z,-0.69
2023-03-05T22:04:48.870Z,-0.58
2023-03-05T22:07:20.888Z,-0.52
2023-03-05T22:09:56.566Z,-0.41
2023-03-05T22:13:12.498Z,-0.29
2023-03-05T22:15:47.504Z,-0.30
2023-03-05T22:18:19.987Z,-0.43
2023-03-05T22:20:53.418Z,-0.67
2023-03-05T22:23:27.403Z,-0.77
2023-03-05T22:26:01.800Z,-0.86
2023-03-05T22:28:32.795Z,-0.82
2023-03-05T22:31:03.620Z,-0.61
2023-03-05T22:33:34.921Z,-0.31
2023-03-05T22:36:14.994Z,-0.16
2023-03-05T22:38:45.792Z,-0.21
2023-03-05T22:41:19.905Z,-0.39
2023-03-05T22:43:51.648Z,-0.63
2023-03-05T22:46:24.226Z,-0.71
2023-03-05T22:48:55.225Z,-0.84
2023-03-05T22:51:28.450Z,-1.00
2023-03-05T22:53:59.298Z,-1.14
2023-03-05T22:56:29.799Z,-1.26
2023-03-05T22:59:00.560Z,-1.31
2023-03-05T23:01:31.133Z,-1.27
2023-03-05T23:04:47.829Z,-1.18
2023-03-05T23:07:23.500Z,-1.08
2023-03-05T23:09:56.063Z,-1.06
2023-03-05T23:12:28.196Z,-1.08
2023-03-05T23:14:58.952Z,-1.19
2023-03-05T23:17:29.917Z,-1.33
2023-03-05T23:20:00.400Z,-1.51
2023-03-05T23:22:33.794Z,-1.65
2023-03-05T23:25:04.526Z,-1.71
2023-03-05T23:27:35.298Z,-1.69
2023-03-05T23:30:23.242Z,-1.62
2023-03-05T23:32:56.026Z,-1.53
2023-03-05T23:35:28.847Z,-1.45
2023-03-05T23:38:03.644Z,-1.41
2023-03-05T23:40:35.840Z,-1.47
2023-03-05T23:43:07.292Z,-1.56
2023-03-05T23:45:38.264Z,-1.69
2023-03-05T23:48:09.312Z,-2.02
2023-03-05T23:50:43.235Z,-1.99
2023-03-05T23:53:20.259Z,-2.02
2023-03-05T23:55:51.381Z,-1.87
2023-03-05T23:58:22.710Z,-1.72
